sensor_id;sensor_type;location;lat;lon;timestamp;temperature;humidity
19555;DHT22;9924;50.828;6.440;2022-12-07T00:02:43;4.60;99.90
19555;DHT22;9924;50.828;6.440;2022-12-07T00:05:27;4.70;99.90
19555;DHT22;9924;50.828;6.440;2022-12-07T00:08:13;4.70;99.90
19555;DHT22;9924;50.828;6.440;2022-12-07T00:11:11;4.70;99.90
19555;DHT22;9924;50.828;6.440;2022-12-07T00:13:59;4.70;99.90
19555;DHT22;9924;50.828;6.440;2022-12-07T00:16:44;4.70;99.90
19555;DHT22;9924;50.828;6.440;2022-12-07T00:19:29;4.70;99.90
19555;DHT22;9924;50.828;6.440;2022-12-07T00:22:14;4.70;99.90
19555;DHT22;9924;50.828;6.440;2022-12-07T00:24:59;4.70;99.90
19555;DHT22;9924;50.828;6.440;2022-12-07T00:27:44;4.70;99.90
19555;DHT22;9924;50.828;6.440;2022-12-07T00:30:28;4.70;99.90
19555;DHT22;9924;50.828;6.440;2022-12-07T00:33:13;4.60;99.90
19555;DHT22;9924;50.828;6.440;2022-12-07T00:35:59;4.60;99.90
19555;DHT22;9924;50.828;6.440;2022-12-07T00:38:44;4.70;99.90
19555;DHT22;9924;50.828;6.440;2022-12-07T00:41:29;4.70;99.90
19555;DHT22;9924;50.828;6.440;2022-12-07T00:44:13;4.70;99.90
19555;DHT22;9924;50.828;6.440;2022-12-07T00:46:58;4.80;99.90
19555;DHT22;9924;50.828;6.440;2022-12-07T00:49:46;4.80;99.90
19555;DHT22;9924;50.828;6.440;2022-12-07T00:52:31;4.80;99.90
19555;DHT22;9924;50.828;6.440;2022-12-07T00:55:15;4.80;99.90
19555;DHT22;9924;50.828;6.440;2022-12-07T00:58:00;4.80;99.90
19555;DHT22;9924;50.828;6.440;2022-12-07T01:00:45;4.70;99.90
19555;DHT22;9924;50.828;6.440;2022-12-07T01:03:30;4.70;99.90
19555;DHT22;9924;50.828;6.440;2022-12-07T01:06:20;4.80;99.90
19555;DHT22;9924;50.828;6.440;2022-12-07T01:09:08;4.80;99.90
19555;DHT22;9924;50.828;6.440;2022-12-07T01:11:52;4.80;99.90
19555;DHT22;9924;50.828;6.440;2022-12-07T01:14:43;4.80;99.90
19555;DHT22;9924;50.828;6.440;2022-12-07T01:17:28;4.80;99.90
19555;DHT22;9924;50.828;6.440;2022-12-07T01:20:13;4.80;99.90
19555;DHT22;9924;50.828;6.440;2022-12-07T01:23:00;4.80;99.90
19555;DHT22;9924;50.828;6.440;2022-12-07T01:25:45;4.80;99.90
19555;DHT22;9924;50.828;6.440;2022-12-07T01:28:29;4.90;99.90
19555;DHT22;9924;50.828;6.440;2022-12-07T01:31:16;4.90;99.90
19555;DHT22;9924;50.828;6.440;2022-12-07T01:34:01;4.90;99.90
19555;DHT22;9924;50.828;6.440;2022-12-07T01:36:46;4.90;99.90
19555;DHT22;9924;50.828;6.440;2022-12-07T01:39:30;4.90;99.90
19555;DHT22;9924;50.828;6.440;2022-12-07T01:42:15;4.90;99.90
19555;DHT22;9924;50.828;6.440;2022-12-07T01:48:03;4.90;99.90
19555;DHT22;9924;50.828;6.440;2022-12-07T01:50:50;5.00;99.90
19555;DHT22;9924;50.828;6.440;2022-12-07T01:53:39;5.00;99.90
19555;DHT22;9924;50.828;6.440;2022-12-07T01:56:26;5.00;99.90
19555;DHT22;9924;50.828;6.440;2022-12-07T01:59:17;4.90;99.90
19555;DHT22;9924;50.828;6.440;2022-12-07T02:02:04;4.90;99.90
19555;DHT22;9924;50.828;6.440;2022-12-07T02:04:53;4.90;99.90
19555;DHT22;9924;50.828;6.440;2022-12-07T02:07:41;4.80;99.90
19555;DHT22;9924;50.828;6.440;2022-12-07T02:10:28;4.90;99.90
19555;DHT22;9924;50.828;6.440;2022-12-07T02:13:25;4.90;99.90
19555;DHT22;9924;50.828;6.440;2022-12-07T02:16:44;4.90;99.90
19555;DHT22;9924;50.828;6.440;2022-12-07T02:20:18;4.90;99.90
19555;DHT22;9924;50.828;6.440;2022-12-07T02:29:20;4.90;99.90
19555;DHT22;9924;50.828;6.440;2022-12-07T02:32:25;4.90;99.90
19555;DHT22;9924;50.828;6.440;2022-12-07T02:35:19;4.90;99.90
19555;DHT22;9924;50.828;6.440;2022-12-07T02:38:22;4.90;99.90
19555;DHT22;9924;50.828;6.440;2022-12-07T02:44:08;4.90;99.90
19555;DHT22;9924;50.828;6.440;2022-12-07T02:47:04;4.80;99.90
19555;DHT22;9924;50.828;6.440;2022-12-07T02:49:50;4.80;99.90
19555;DHT22;9924;50.828;6.440;2022-12-07T02:52:34;4.80;99.90
19555;DHT22;9924;50.828;6.440;2022-12-07T02:55:24;4.90;99.90
19555;DHT22;9924;50.828;6.440;2022-12-07T02:58:30;4.90;99.90
19555;DHT22;9924;50.828;6.440;2022-12-07T03:01:30;4.80;99.90
19555;DHT22;9924;50.828;6.440;2022-12-07T03:08:02;4.90;99.90
19555;DHT22;9924;50.828;6.440;2022-12-07T03:11:07;4.90;99.90
19555;DHT22;9924;50.828;6.440;2022-12-07T03:13:59;4.90;99.90
19555;DHT22;9924;50.828;6.440;2022-12-07T03:17:07;4.80;99.90
19555;DHT22;9924;50.828;6.440;2022-12-07T03:19:58;4.90;99.90
19555;DHT22;9924;50.828;6.440;2022-12-07T03:22:44;4.90;99.90
19555;DHT22;9924;50.828;6.440;2022-12-07T03:25:30;4.90;99.90
19555;DHT22;9924;50.828;6.440;2022-12-07T03:28:17;4.80;99.90
19555;DHT22;9924;50.828;6.440;2022-12-07T03:31:12;4.90;99.90
19555;DHT22;9924;50.828;6.440;2022-12-07T03:37:05;4.90;99.90
19555;DHT22;9924;50.828;6.440;2022-12-07T03:43:03;5.00;99.90
19555;DHT22;9924;50.828;6.440;2022-12-07T03:48:56;4.90;99.90
19555;DHT22;9924;50.828;6.440;2022-12-07T03:52:33;5.00;99.90
19555;DHT22;9924;50.828;6.440;2022-12-07T03:57:47;5.00;99.90
19555;DHT22;9924;50.828;6.440;2022-12-07T04:00:33;5.00;99.90
19555;DHT22;9924;50.828;6.440;2022-12-07T04:03:18;4.90;99.90
19555;DHT22;9924;50.828;6.440;2022-12-07T04:06:02;4.90;99.90
19555;DHT22;9924;50.828;6.440;2022-12-07T04:08:50;4.90;99.90
19555;DHT22;9924;50.828;6.440;2022-12-07T04:11:34;4.90;99.90
19555;DHT22;9924;50.828;6.440;2022-12-07T04:14:19;4.90;99.90
19555;DHT22;9924;50.828;6.440;2022-12-07T04:17:04;4.90;99.90
19555;DHT22;9924;50.828;6.440;2022-12-07T04:19:49;4.90;99.90
19555;DHT22;9924;50.828;6.440;2022-12-07T04:22:37;4.80;99.90
19555;DHT22;9924;50.828;6.440;2022-12-07T04:25:21;4.80;99.90
19555;DHT22;9924;50.828;6.440;2022-12-07T04:28:06;4.70;99.90
19555;DHT22;9924;50.828;6.440;2022-12-07T04:30:51;4.70;99.90
19555;DHT22;9924;50.828;6.440;2022-12-07T04:33:36;4.70;99.90
19555;DHT22;9924;50.828;6.440;2022-12-07T04:36:20;4.70;99.90
19555;DHT22;9924;50.828;6.440;2022-12-07T04:39:07;4.70;99.90
19555;DHT22;9924;50.828;6.440;2022-12-07T04:41:52;4.70;99.90
19555;DHT22;9924;50.828;6.440;2022-12-07T04:44:36;4.70;99.90
19555;DHT22;9924;50.828;6.440;2022-12-07T04:47:21;4.70;99.90
19555;DHT22;9924;50.828;6.440;2022-12-07T04:50:06;4.70;99.90
19555;DHT22;9924;50.828;6.440;2022-12-07T04:52:51;4.70;99.90
19555;DHT22;9924;50.828;6.440;2022-12-07T04:55:36;4.70;99.90
19555;DHT22;9924;50.828;6.440;2022-12-07T04:58:20;4.70;99.90
19555;DHT22;9924;50.828;6.440;2022-12-07T05:01:08;4.70;99.90
19555;DHT22;9924;50.828;6.440;2022-12-07T05:03:53;4.70;99.90
19555;DHT22;9924;50.828;6.440;2022-12-07T05:06:38;4.60;99.90
19555;DHT22;9924;50.828;6.440;2022-12-07T05:09:24;4.60;99.90
19555;DHT22;9924;50.828;6.440;2022-12-07T05:12:09;4.50;99.90
19555;DHT22;9924;50.828;6.440;2022-12-07T05:14:54;4.50;99.90
19555;DHT22;9924;50.828;6.440;2022-12-07T05:17:38;4.50;99.90
19555;DHT22;9924;50.828;6.440;2022-12-07T05:20:23;4.50;99.90
19555;DHT22;9924;50.828;6.440;2022-12-07T05:23:08;4.50;99.90
19555;DHT22;9924;50.828;6.440;2022-12-07T05:25:53;4.50;99.90
19555;DHT22;9924;50.828;6.440;2022-12-07T05:28:38;4.50;99.90
19555;DHT22;9924;50.828;6.440;2022-12-07T05:31:23;4.60;99.90
19555;DHT22;9924;50.828;6.440;2022-12-07T05:34:08;4.60;99.90
19555;DHT22;9924;50.828;6.440;2022-12-07T05:36:53;4.60;99.90
19555;DHT22;9924;50.828;6.440;2022-12-07T05:39:37;4.60;99.90
19555;DHT22;9924;50.828;6.440;2022-12-07T05:42:24;4.60;99.90
19555;DHT22;9924;50.828;6.440;2022-12-07T05:45:10;4.60;99.90
19555;DHT22;9924;50.828;6.440;2022-12-07T05:47:54;4.60;99.90
19555;DHT22;9924;50.828;6.440;2022-12-07T05:50:39;4.60;99.90
19555;DHT22;9924;50.828;6.440;2022-12-07T05:53:23;4.60;99.90
19555;DHT22;9924;50.828;6.440;2022-12-07T05:56:12;4.60;99.90
19555;DHT22;9924;50.828;6.440;2022-12-07T05:58:59;4.60;99.90
19555;DHT22;9924;50.828;6.440;2022-12-07T06:02:08;4.60;99.90
19555;DHT22;9924;50.828;6.440;2022-12-07T06:04:53;4.70;99.90
19555;DHT22;9924;50.828;6.440;2022-12-07T06:07:37;4.60;99.90
19555;DHT22;9924;50.828;6.440;2022-12-07T06:10:22;4.60;99.90
19555;DHT22;9924;50.828;6.440;2022-12-07T06:13:07;4.60;99.90
19555;DHT22;9924;50.828;6.440;2022-12-07T06:15:53;4.60;99.90
19555;DHT22;9924;50.828;6.440;2022-12-07T06:18:37;4.60;99.90
19555;DHT22;9924;50.828;6.440;2022-12-07T06:21:24;4.60;99.90
19555;DHT22;9924;50.828;6.440;2022-12-07T06:24:14;4.60;99.90
19555;DHT22;9924;50.828;6.440;2022-12-07T06:26:59;4.60;99.90
19555;DHT22;9924;50.828;6.440;2022-12-07T06:29:44;4.60;99.90
19555;DHT22;9924;50.828;6.440;2022-12-07T06:32:28;4.60;99.90
19555;DHT22;9924;50.828;6.440;2022-12-07T06:35:13;4.60;99.90
19555;DHT22;9924;50.828;6.440;2022-12-07T06:37:57;4.60;99.90
19555;DHT22;9924;50.828;6.440;2022-12-07T06:40:42;4.60;99.90
19555;DHT22;9924;50.828;6.440;2022-12-07T06:43:26;4.60;99.90
19555;DHT22;9924;50.828;6.440;2022-12-07T06:46:11;4.60;99.90
19555;DHT22;9924;50.828;6.440;2022-12-07T06:48:56;4.60;99.90
19555;DHT22;9924;50.828;6.440;2022-12-07T06:51:42;4.60;99.90
19555;DHT22;9924;50.828;6.440;2022-12-07T06:54:27;4.60;99.90
19555;DHT22;9924;50.828;6.440;2022-12-07T06:57:14;4.70;99.90
19555;DHT22;9924;50.828;6.440;2022-12-07T06:59:58;4.70;99.90
19555;DHT22;9924;50.828;6.440;2022-12-07T07:02:43;4.60;99.90
19555;DHT22;9924;50.828;6.440;2022-12-07T07:05:27;4.70;99.90
19555;DHT22;9924;50.828;6.440;2022-12-07T07:08:12;4.60;99.90
19555;DHT22;9924;50.828;6.440;2022-12-07T07:10:57;4.70;99.90
19555;DHT22;9924;50.828;6.440;2022-12-07T07:13:42;4.60;99.90
19555;DHT22;9924;50.828;6.440;2022-12-07T07:16:26;4.70;99.90
19555;DHT22;9924;50.828;6.440;2022-12-07T07:19:10;4.70;99.90
19555;DHT22;9924;50.828;6.440;2022-12-07T07:21:55;4.60;99.90
19555;DHT22;9924;50.828;6.440;2022-12-07T07:24:39;4.60;99.90
19555;DHT22;9924;50.828;6.440;2022-12-07T07:27:25;4.50;99.90
19555;DHT22;9924;50.828;6.440;2022-12-07T07:30:12;4.50;99.90
19555;DHT22;9924;50.828;6.440;2022-12-07T07:32:58;4.50;99.90
19555;DHT22;9924;50.828;6.440;2022-12-07T07:35:43;4.60;99.90
19555;DHT22;9924;50.828;6.440;2022-12-07T07:38:27;4.60;99.90
19555;DHT22;9924;50.828;6.440;2022-12-07T07:41:12;4.60;99.90
19555;DHT22;9924;50.828;6.440;2022-12-07T07:43:56;4.60;99.90
19555;DHT22;9924;50.828;6.440;2022-12-07T07:46:41;4.60;99.90
19555;DHT22;9924;50.828;6.440;2022-12-07T07:49:26;4.60;99.90
19555;DHT22;9924;50.828;6.440;2022-12-07T07:52:11;4.60;99.90
19555;DHT22;9924;50.828;6.440;2022-12-07T07:54:55;4.70;99.90
19555;DHT22;9924;50.828;6.440;2022-12-07T07:57:40;4.70;99.90
19555;DHT22;9924;50.828;6.440;2022-12-07T08:00:25;4.70;99.90
19555;DHT22;9924;50.828;6.440;2022-12-07T08:03:10;4.70;99.90
19555;DHT22;9924;50.828;6.440;2022-12-07T08:05:55;4.60;99.90
19555;DHT22;9924;50.828;6.440;2022-12-07T08:08:39;4.60;99.90
19555;DHT22;9924;50.828;6.440;2022-12-07T08:11:24;4.60;99.90
19555;DHT22;9924;50.828;6.440;2022-12-07T08:14:10;4.60;99.90
19555;DHT22;9924;50.828;6.440;2022-12-07T08:16:55;4.60;99.90
19555;DHT22;9924;50.828;6.440;2022-12-07T08:19:40;4.70;99.90
19555;DHT22;9924;50.828;6.440;2022-12-07T08:22:24;4.70;99.90
19555;DHT22;9924;50.828;6.440;2022-12-07T08:25:09;4.70;99.90
19555;DHT22;9924;50.828;6.440;2022-12-07T08:27:54;4.80;99.90
19555;DHT22;9924;50.828;6.440;2022-12-07T08:30:38;4.70;99.90
19555;DHT22;9924;50.828;6.440;2022-12-07T08:33:23;4.70;99.90
19555;DHT22;9924;50.828;6.440;2022-12-07T08:36:10;4.80;99.90
19555;DHT22;9924;50.828;6.440;2022-12-07T08:38:55;4.80;99.90
19555;DHT22;9924;50.828;6.440;2022-12-07T08:41:40;4.90;99.90
19555;DHT22;9924;50.828;6.440;2022-12-07T08:44:25;4.90;99.90
19555;DHT22;9924;50.828;6.440;2022-12-07T08:47:13;4.80;99.90
19555;DHT22;9924;50.828;6.440;2022-12-07T08:49:57;4.80;99.90
19555;DHT22;9924;50.828;6.440;2022-12-07T08:52:57;4.80;99.90
19555;DHT22;9924;50.828;6.440;2022-12-07T08:55:44;4.80;99.90
19555;DHT22;9924;50.828;6.440;2022-12-07T08:58:30;4.70;99.90
19555;DHT22;9924;50.828;6.440;2022-12-07T09:01:15;4.70;99.90
19555;DHT22;9924;50.828;6.440;2022-12-07T09:03:59;4.60;99.90
19555;DHT22;9924;50.828;6.440;2022-12-07T09:06:45;4.70;99.90
19555;DHT22;9924;50.828;6.440;2022-12-07T09:09:30;4.90;99.90
19555;DHT22;9924;50.828;6.440;2022-12-07T09:12:14;5.10;99.90
19555;DHT22;9924;50.828;6.440;2022-12-07T09:15:02;5.40;99.90
19555;DHT22;9924;50.828;6.440;2022-12-07T09:17:47;5.80;99.90
19555;DHT22;9924;50.828;6.440;2022-12-07T09:20:32;5.90;99.90
19555;DHT22;9924;50.828;6.440;2022-12-07T09:23:17;5.90;99.90
19555;DHT22;9924;50.828;6.440;2022-12-07T09:26:03;6.10;99.90
19555;DHT22;9924;50.828;6.440;2022-12-07T09:28:48;6.30;99.90
19555;DHT22;9924;50.828;6.440;2022-12-07T09:31:36;6.30;99.90
19555;DHT22;9924;50.828;6.440;2022-12-07T09:34:21;6.20;99.90
19555;DHT22;9924;50.828;6.440;2022-12-07T09:37:06;6.10;99.90
19555;DHT22;9924;50.828;6.440;2022-12-07T09:39:50;6.00;99.90
19555;DHT22;9924;50.828;6.440;2022-12-07T09:42:37;6.00;99.90
19555;DHT22;9924;50.828;6.440;2022-12-07T09:45:27;6.20;99.90
19555;DHT22;9924;50.828;6.440;2022-12-07T09:48:22;6.60;99.90
19555;DHT22;9924;50.828;6.440;2022-12-07T09:51:25;7.00;99.90
19555;DHT22;9924;50.828;6.440;2022-12-07T09:54:13;7.10;99.90
19555;DHT22;9924;50.828;6.440;2022-12-07T09:56:58;6.90;99.90
19555;DHT22;9924;50.828;6.440;2022-12-07T09:59:43;6.90;99.90
19555;DHT22;9924;50.828;6.440;2022-12-07T10:02:36;7.30;99.90
19555;DHT22;9924;50.828;6.440;2022-12-07T10:05:35;7.80;99.90
19555;DHT22;9924;50.828;6.440;2022-12-07T10:08:21;7.80;99.90
19555;DHT22;9924;50.828;6.440;2022-12-07T10:11:06;7.40;99.90
19555;DHT22;9924;50.828;6.440;2022-12-07T10:13:55;7.20;99.90
19555;DHT22;9924;50.828;6.440;2022-12-07T10:16:54;7.40;99.90
19555;DHT22;9924;50.828;6.440;2022-12-07T10:19:39;7.30;99.90
19555;DHT22;9924;50.828;6.440;2022-12-07T10:22:23;7.10;99.90
19555;DHT22;9924;50.828;6.440;2022-12-07T10:25:18;6.80;99.90
19555;DHT22;9924;50.828;6.440;2022-12-07T10:28:15;6.50;99.90
19555;DHT22;9924;50.828;6.440;2022-12-07T10:31:01;6.30;99.90
19555;DHT22;9924;50.828;6.440;2022-12-07T10:33:49;6.20;99.90
19555;DHT22;9924;50.828;6.440;2022-12-07T10:36:37;6.10;99.90
19555;DHT22;9924;50.828;6.440;2022-12-07T10:39:23;6.10;99.90
19555;DHT22;9924;50.828;6.440;2022-12-07T10:42:16;6.10;99.90
19555;DHT22;9924;50.828;6.440;2022-12-07T10:45:15;6.10;99.90
19555;DHT22;9924;50.828;6.440;2022-12-07T10:51:55;6.30;99.90
19555;DHT22;9924;50.828;6.440;2022-12-07T10:57:58;6.10;99.90
19555;DHT22;9924;50.828;6.440;2022-12-07T11:01:06;6.10;99.90
19555;DHT22;9924;50.828;6.440;2022-12-07T11:13:30;6.10;99.90
19555;DHT22;9924;50.828;6.440;2022-12-07T11:16:31;6.00;99.90
19555;DHT22;9924;50.828;6.440;2022-12-07T11:19:46;5.90;99.90
19555;DHT22;9924;50.828;6.440;2022-12-07T11:23:04;5.90;99.90
19555;DHT22;9924;50.828;6.440;2022-12-07T11:26:13;5.90;99.90
19555;DHT22;9924;50.828;6.440;2022-12-07T11:32:38;6.10;99.90
19555;DHT22;9924;50.828;6.440;2022-12-07T11:38:53;6.10;99.90
19555;DHT22;9924;50.828;6.440;2022-12-07T11:41:41;6.20;99.90
19555;DHT22;9924;50.828;6.440;2022-12-07T11:44:45;6.20;99.90
19555;DHT22;9924;50.828;6.440;2022-12-07T11:47:51;6.10;99.90
19555;DHT22;9924;50.828;6.440;2022-12-07T11:50:48;6.00;99.90
19555;DHT22;9924;50.828;6.440;2022-12-07T11:53:46;6.10;99.90
19555;DHT22;9924;50.828;6.440;2022-12-07T11:56:35;6.10;99.90
19555;DHT22;9924;50.828;6.440;2022-12-07T11:59:28;6.10;99.90
19555;DHT22;9924;50.828;6.440;2022-12-07T12:02:21;6.20;99.90
19555;DHT22;9924;50.828;6.440;2022-12-07T12:05:26;6.10;99.90
19555;DHT22;9924;50.828;6.440;2022-12-07T12:08:24;6.10;99.90
19555;DHT22;9924;50.828;6.440;2022-12-07T12:18:13;6.10;99.90
19555;DHT22;9924;50.828;6.440;2022-12-07T12:21:13;6.10;99.90
19555;DHT22;9924;50.828;6.440;2022-12-07T12:24:14;6.10;99.90
19555;DHT22;9924;50.828;6.440;2022-12-07T12:27:14;6.10;99.90
19555;DHT22;9924;50.828;6.440;2022-12-07T12:30:02;6.10;99.90
19555;DHT22;9924;50.828;6.440;2022-12-07T12:32:47;6.20;99.90
19555;DHT22;9924;50.828;6.440;2022-12-07T12:35:35;6.30;99.90
19555;DHT22;9924;50.828;6.440;2022-12-07T12:38:27;6.30;99.90
19555;DHT22;9924;50.828;6.440;2022-12-07T12:45:05;6.30;99.90
19555;DHT22;9924;50.828;6.440;2022-12-07T12:48:26;6.10;99.90
19555;DHT22;9924;50.828;6.440;2022-12-07T12:51:37;6.10;99.90
19555;DHT22;9924;50.828;6.440;2022-12-07T12:54:26;6.00;99.90
19555;DHT22;9924;50.828;6.440;2022-12-07T12:57:16;6.10;99.90
19555;DHT22;9924;50.828;6.440;2022-12-07T13:00:19;6.20;99.90
19555;DHT22;9924;50.828;6.440;2022-12-07T13:03:04;6.20;99.90
19555;DHT22;9924;50.828;6.440;2022-12-07T13:09:34;6.30;99.90
19555;DHT22;9924;50.828;6.440;2022-12-07T13:12:19;6.30;99.90
19555;DHT22;9924;50.828;6.440;2022-12-07T13:15:22;6.40;99.90
19555;DHT22;9924;50.828;6.440;2022-12-07T13:18:38;6.50;99.90
19555;DHT22;9924;50.828;6.440;2022-12-07T13:24:13;6.50;99.90
19555;DHT22;9924;50.828;6.440;2022-12-07T13:26:58;6.60;99.90
19555;DHT22;9924;50.828;6.440;2022-12-07T13:29:43;6.70;99.90
19555;DHT22;9924;50.828;6.440;2022-12-07T13:32:29;6.70;99.90
19555;DHT22;9924;50.828;6.440;2022-12-07T13:35:35;6.70;99.90
19555;DHT22;9924;50.828;6.440;2022-12-07T13:38:33;6.70;99.90
19555;DHT22;9924;50.828;6.440;2022-12-07T13:41:21;6.50;99.90
19555;DHT22;9924;50.828;6.440;2022-12-07T13:44:14;6.50;99.90
19555;DHT22;9924;50.828;6.440;2022-12-07T13:49:57;6.30;99.90
19555;DHT22;9924;50.828;6.440;2022-12-07T13:52:47;6.10;99.90
19555;DHT22;9924;50.828;6.440;2022-12-07T13:55:33;6.10;99.90
19555;DHT22;9924;50.828;6.440;2022-12-07T13:58:18;6.10;99.90
19555;DHT22;9924;50.828;6.440;2022-12-07T14:01:06;6.10;99.90
19555;DHT22;9924;50.828;6.440;2022-12-07T14:03:51;6.00;99.90
19555;DHT22;9924;50.828;6.440;2022-12-07T14:06:35;6.00;99.90
19555;DHT22;9924;50.828;6.440;2022-12-07T14:09:23;6.00;99.90
19555;DHT22;9924;50.828;6.440;2022-12-07T14:12:08;5.90;99.90
19555;DHT22;9924;50.828;6.440;2022-12-07T14:14:53;5.90;99.90
19555;DHT22;9924;50.828;6.440;2022-12-07T14:17:50;5.80;99.90
19555;DHT22;9924;50.828;6.440;2022-12-07T14:20:38;5.90;99.90
19555;DHT22;9924;50.828;6.440;2022-12-07T14:23:25;5.80;99.90
19555;DHT22;9924;50.828;6.440;2022-12-07T14:26:14;5.80;99.90
19555;DHT22;9924;50.828;6.440;2022-12-07T14:32:25;5.80;99.90
19555;DHT22;9924;50.828;6.440;2022-12-07T14:35:14;5.70;99.90
19555;DHT22;9924;50.828;6.440;2022-12-07T14:37:59;5.70;99.90
19555;DHT22;9924;50.828;6.440;2022-12-07T14:40:43;5.70;99.90
19555;DHT22;9924;50.828;6.440;2022-12-07T14:43:28;5.70;99.90
19555;DHT22;9924;50.828;6.440;2022-12-07T14:46:13;5.70;99.90
19555;DHT22;9924;50.828;6.440;2022-12-07T14:49:01;5.70;99.90
19555;DHT22;9924;50.828;6.440;2022-12-07T14:51:46;5.60;99.90
19555;DHT22;9924;50.828;6.440;2022-12-07T14:54:32;5.60;99.90
19555;DHT22;9924;50.828;6.440;2022-12-07T14:57:17;5.60;99.90
19555;DHT22;9924;50.828;6.440;2022-12-07T15:00:02;5.60;99.90
19555;DHT22;9924;50.828;6.440;2022-12-07T15:02:47;5.50;99.90
19555;DHT22;9924;50.828;6.440;2022-12-07T15:05:35;5.50;99.90
19555;DHT22;9924;50.828;6.440;2022-12-07T15:08:21;5.50;99.90
19555;DHT22;9924;50.828;6.440;2022-12-07T15:11:05;5.50;99.90
19555;DHT22;9924;50.828;6.440;2022-12-07T15:13:50;5.40;99.90
19555;DHT22;9924;50.828;6.440;2022-12-07T15:16:52;5.40;99.90
19555;DHT22;9924;50.828;6.440;2022-12-07T15:19:37;5.40;99.90
19555;DHT22;9924;50.828;6.440;2022-12-07T15:22:22;5.40;99.90
19555;DHT22;9924;50.828;6.440;2022-12-07T15:25:13;5.40;99.90
19555;DHT22;9924;50.828;6.440;2022-12-07T15:27:58;5.40;99.90
19555;DHT22;9924;50.828;6.440;2022-12-07T15:30:43;5.50;99.90
19555;DHT22;9924;50.828;6.440;2022-12-07T15:33:28;5.40;99.90
19555;DHT22;9924;50.828;6.440;2022-12-07T15:36:24;5.40;99.90
19555;DHT22;9924;50.828;6.440;2022-12-07T15:39:09;5.30;99.90
19555;DHT22;9924;50.828;6.440;2022-12-07T15:41:53;5.40;99.90
19555;DHT22;9924;50.828;6.440;2022-12-07T15:44:38;5.30;99.90
19555;DHT22;9924;50.828;6.440;2022-12-07T15:47:43;5.30;99.90
19555;DHT22;9924;50.828;6.440;2022-12-07T15:50:28;5.40;99.90
19555;DHT22;9924;50.828;6.440;2022-12-07T15:53:13;5.40;99.90
19555;DHT22;9924;50.828;6.440;2022-12-07T15:55:58;5.40;99.90
19555;DHT22;9924;50.828;6.440;2022-12-07T15:58:42;5.50;99.90
19555;DHT22;9924;50.828;6.440;2022-12-07T16:01:27;5.50;99.90
19555;DHT22;9924;50.828;6.440;2022-12-07T16:04:12;5.50;99.90
19555;DHT22;9924;50.828;6.440;2022-12-07T16:06:57;5.40;99.90
19555;DHT22;9924;50.828;6.440;2022-12-07T16:09:42;5.30;99.90
19555;DHT22;9924;50.828;6.440;2022-12-07T16:12:27;5.30;99.90
19555;DHT22;9924;50.828;6.440;2022-12-07T16:15:11;5.30;99.90
19555;DHT22;9924;50.828;6.440;2022-12-07T16:17:56;5.20;99.90
19555;DHT22;9924;50.828;6.440;2022-12-07T16:20:40;5.20;99.90
19555;DHT22;9924;50.828;6.440;2022-12-07T16:23:25;5.20;99.90
19555;DHT22;9924;50.828;6.440;2022-12-07T16:26:19;5.20;99.90
19555;DHT22;9924;50.828;6.440;2022-12-07T16:29:10;5.20;99.90
19555;DHT22;9924;50.828;6.440;2022-12-07T16:32:01;5.20;99.90
19555;DHT22;9924;50.828;6.440;2022-12-07T16:34:46;5.20;99.90
19555;DHT22;9924;50.828;6.440;2022-12-07T16:37:31;5.20;99.90
19555;DHT22;9924;50.828;6.440;2022-12-07T16:40:15;5.30;99.90
19555;DHT22;9924;50.828;6.440;2022-12-07T16:43:00;5.30;99.90
19555;DHT22;9924;50.828;6.440;2022-12-07T16:45:46;5.30;99.90
19555;DHT22;9924;50.828;6.440;2022-12-07T16:48:34;5.20;99.90
19555;DHT22;9924;50.828;6.440;2022-12-07T16:51:18;5.20;99.90
19555;DHT22;9924;50.828;6.440;2022-12-07T16:54:03;5.20;99.90
19555;DHT22;9924;50.828;6.440;2022-12-07T16:56:48;5.20;99.90
19555;DHT22;9924;50.828;6.440;2022-12-07T16:59:32;5.20;99.90
19555;DHT22;9924;50.828;6.440;2022-12-07T17:02:18;5.20;99.90
19555;DHT22;9924;50.828;6.440;2022-12-07T17:05:03;5.20;99.90
19555;DHT22;9924;50.828;6.440;2022-12-07T17:07:47;5.20;99.90
19555;DHT22;9924;50.828;6.440;2022-12-07T17:10:34;5.20;99.90
19555;DHT22;9924;50.828;6.440;2022-12-07T17:13:19;5.20;99.90
19555;DHT22;9924;50.828;6.440;2022-12-07T17:16:22;5.20;99.90
19555;DHT22;9924;50.828;6.440;2022-12-07T17:19:09;5.20;99.90
19555;DHT22;9924;50.828;6.440;2022-12-07T17:21:55;5.20;99.90
19555;DHT22;9924;50.828;6.440;2022-12-07T17:24:42;5.20;99.90
19555;DHT22;9924;50.828;6.440;2022-12-07T17:27:27;5.10;99.90
19555;DHT22;9924;50.828;6.440;2022-12-07T17:30:13;5.10;99.90
19555;DHT22;9924;50.828;6.440;2022-12-07T17:32:57;5.10;99.90
19555;DHT22;9924;50.828;6.440;2022-12-07T17:35:42;5.10;99.90
19555;DHT22;9924;50.828;6.440;2022-12-07T17:38:28;5.10;99.90
19555;DHT22;9924;50.828;6.440;2022-12-07T17:41:17;5.10;99.90
19555;DHT22;9924;50.828;6.440;2022-12-07T17:44:40;5.10;99.90
19555;DHT22;9924;50.828;6.440;2022-12-07T17:47:25;5.00;99.90
19555;DHT22;9924;50.828;6.440;2022-12-07T17:50:10;5.10;99.90
19555;DHT22;9924;50.828;6.440;2022-12-07T17:52:55;5.10;99.90
19555;DHT22;9924;50.828;6.440;2022-12-07T17:55:55;5.00;99.90
19555;DHT22;9924;50.828;6.440;2022-12-07T17:58:39;5.00;99.90
19555;DHT22;9924;50.828;6.440;2022-12-07T18:01:24;5.00;99.90
19555;DHT22;9924;50.828;6.440;2022-12-07T18:04:09;4.90;99.90
19555;DHT22;9924;50.828;6.440;2022-12-07T18:06:53;4.90;99.90
19555;DHT22;9924;50.828;6.440;2022-12-07T18:09:38;4.90;99.90
19555;DHT22;9924;50.828;6.440;2022-12-07T18:12:23;5.00;99.90
19555;DHT22;9924;50.828;6.440;2022-12-07T18:15:08;4.90;99.90
19555;DHT22;9924;50.828;6.440;2022-12-07T18:17:55;4.90;99.90
19555;DHT22;9924;50.828;6.440;2022-12-07T18:20:40;4.80;99.90
19555;DHT22;9924;50.828;6.440;2022-12-07T18:23:25;4.80;99.90
19555;DHT22;9924;50.828;6.440;2022-12-07T18:26:10;4.80;99.90
19555;DHT22;9924;50.828;6.440;2022-12-07T18:28:59;4.70;99.90
19555;DHT22;9924;50.828;6.440;2022-12-07T18:31:45;4.70;99.90
19555;DHT22;9924;50.828;6.440;2022-12-07T18:34:30;4.70;99.90
19555;DHT22;9924;50.828;6.440;2022-12-07T18:37:15;4.70;99.90
19555;DHT22;9924;50.828;6.440;2022-12-07T18:39:59;4.70;99.90
19555;DHT22;9924;50.828;6.440;2022-12-07T18:42:45;4.70;99.90
19555;DHT22;9924;50.828;6.440;2022-12-07T18:45:38;4.60;99.90
19555;DHT22;9924;50.828;6.440;2022-12-07T18:48:23;4.60;99.90
19555;DHT22;9924;50.828;6.440;2022-12-07T18:51:10;4.60;99.90
19555;DHT22;9924;50.828;6.440;2022-12-07T18:53:55;4.60;99.90
19555;DHT22;9924;50.828;6.440;2022-12-07T18:56:40;4.60;99.90
19555;DHT22;9924;50.828;6.440;2022-12-07T18:59:24;4.60;99.90
19555;DHT22;9924;50.828;6.440;2022-12-07T19:02:28;4.60;99.90
19555;DHT22;9924;50.828;6.440;2022-12-07T19:05:12;4.60;99.90
19555;DHT22;9924;50.828;6.440;2022-12-07T19:07:57;4.60;99.90
19555;DHT22;9924;50.828;6.440;2022-12-07T19:10:42;4.60;99.90
19555;DHT22;9924;50.828;6.440;2022-12-07T19:13:26;4.60;99.90
19555;DHT22;9924;50.828;6.440;2022-12-07T19:16:11;4.60;99.90
19555;DHT22;9924;50.828;6.440;2022-12-07T19:18:59;4.60;99.90
19555;DHT22;9924;50.828;6.440;2022-12-07T19:21:43;4.60;99.90
19555;DHT22;9924;50.828;6.440;2022-12-07T19:24:28;4.60;99.90
19555;DHT22;9924;50.828;6.440;2022-12-07T19:27:14;4.50;99.90
19555;DHT22;9924;50.828;6.440;2022-12-07T19:29:58;4.50;99.90
19555;DHT22;9924;50.828;6.440;2022-12-07T19:32:43;4.50;99.90
19555;DHT22;9924;50.828;6.440;2022-12-07T19:35:27;4.50;99.90